Time;durP1;ratioP1;P1;durP2;ratioP2;P2;SDS_P1;SDS_P2;PMS_P1;PMS_P2;Temp;Humidity;BMP_temperature;BMP_pressure;BME280_temperature;BME280_humidity;BME280_pressure;Samples;Min_cycle;Max_cycle;Signal;HPM_P1;HPM_P2
2021/12/26 00:01:55;;;;;;;15.20;13.63;;;1.00;1.00;1.40;99707.00;;;;5036318;28;20457;-79
2021/12/26 00:04:24;;;;;;;15.80;14.40;;;1.00;1.00;1.50;99723.00;;;;5035374;28;20977;-78
2021/12/26 00:06:52;;;;;;;15.10;13.70;;;1.10;1.00;1.50;99724.00;;;;5053403;28;20448;-79
2021/12/26 00:09:20;;;;;;;15.47;14.00;;;1.10;1.00;217.30;157291.00;;;;5038099;28;20436;-78
2021/12/26 00:11:49;;;;;;;15.53;14.07;;;1.10;1.00;217.30;157295.00;;;;5045723;28;20453;-78
2021/12/26 00:14:18;;;;;;;15.20;13.80;;;1.10;1.00;1.50;66579.00;;;;5046033;28;20441;-77
2021/12/26 00:16:46;;;;;;;15.00;13.50;;;1.10;1.00;1.40;66579.00;;;;5040517;28;20456;-79
2021/12/26 00:19:16;;;;;;;16.27;14.87;;;1.10;1.00;1.40;99722.00;;;;5039570;28;20449;-77
2021/12/26 00:21:45;;;;;;;15.50;14.10;;;1.10;1.00;1.40;66577.00;;;;5036887;28;20449;-79
2021/12/26 00:24:13;;;;;;;16.37;14.77;;;1.10;1.00;217.30;157271.00;;;;5050613;28;20449;-81
2021/12/26 00:26:42;;;;;;;15.80;14.40;;;1.20;1.00;1.50;66577.00;;;;5056408;28;20453;-81
2021/12/26 00:29:11;;;;;;;14.87;13.50;;;1.20;1.00;1.50;66579.00;;;;5057563;28;20457;-77
2021/12/26 00:31:41;;;;;;;15.27;13.77;;;1.10;1.00;1.50;99716.00;;;;5038511;28;20437;-78
2021/12/26 00:34:10;;;;;;;14.73;13.33;;;1.10;1.00;1.50;99697.00;;;;5033563;28;20445;-78
2021/12/26 00:36:40;;;;;;;16.73;15.03;;;1.10;1.00;1.50;99717.00;;;;5033458;28;20440;-79
2021/12/26 00:39:11;;;;;;;16.83;15.33;;;1.10;1.00;1.60;99708.00;;;;5032862;28;20447;-78
2021/12/26 00:41:39;;;;;;;16.00;14.50;;;1.20;1.00;1.60;99719.00;;;;5039037;28;20432;-80
2021/12/26 00:44:09;;;;;;;15.33;13.93;;;1.10;1.00;1.60;99727.00;;;;5038128;28;20461;-78
2021/12/26 00:46:39;;;;;;;16.03;14.63;;;1.10;1.00;1.60;99708.00;;;;5040823;28;20440;-79
2021/12/26 00:49:08;;;;;;;16.40;14.90;;;1.10;1.00;52.70;157378.00;;;;5055551;28;20453;-79
2021/12/26 00:51:37;;;;;;;15.07;13.67;;;1.20;1.00;1.70;66628.00;;;;5042969;28;20437;-79
2021/12/26 00:54:06;;;;;;;17.63;16.03;;;1.30;1.00;1.70;99715.00;;;;5056433;28;20447;-80
2021/12/26 00:56:34;;;;;;;16.43;14.83;;;1.30;1.00;1.70;99705.00;;;;5049485;28;20479;-79
2021/12/26 00:59:03;;;;;;;17.47;15.73;;;1.30;1.00;1.80;99711.00;;;;5052438;28;20475;-80
2021/12/26 01:01:34;;;;;;;17.40;15.70;;;1.30;1.00;1.80;99701.00;;;;5036580;28;20945;-79
2021/12/26 01:04:04;;;;;;;15.23;13.83;;;1.30;1.00;1.80;99698.00;;;;5036415;28;20547;-79
2021/12/26 01:06:33;;;;;;;16.77;15.27;;;1.40;1.00;1.80;99688.00;;;;5036033;28;20528;-77
2021/12/26 01:09:07;;;;;;;15.40;14.00;;;1.40;1.00;1.70;99707.00;;;;5053775;28;20475;-78
2021/12/26 01:11:39;;;;;;;17.13;15.40;;;1.30;1.00;1.70;99709.00;;;;5042204;28;20456;-79
2021/12/26 01:14:12;;;;;;;16.67;14.97;;;1.30;1.00;1.70;99706.00;;;;5075288;28;20440;-79
2021/12/26 01:17:00;;;;;;;15.53;14.03;;;1.30;1.00;1.60;99693.00;;;;5056950;28;20470;-79
2021/12/26 01:19:33;;;;;;;15.50;14.07;;;1.20;1.00;1.70;99693.00;;;;5073136;28;20448;-78
2021/12/26 01:22:02;;;;;;;15.03;13.63;;;1.30;1.00;1.70;99692.00;;;;5057326;28;20431;-80
2021/12/26 01:24:30;;;;;;;16.50;15.00;;;1.20;1.00;1.70;99703.00;;;;5054958;28;20472;-79
2021/12/26 01:27:01;;;;;;;16.27;14.67;;;1.20;1.00;1.80;99697.00;;;;5071590;28;20580;-79
2021/12/26 01:29:35;;;;;;;16.20;14.70;;;1.30;1.00;217.30;157434.00;;;;5055967;28;20455;-80
2021/12/26 01:32:06;;;;;;;16.17;14.60;;;1.40;1.00;1.80;99684.00;;;;5057077;28;20424;-79
2021/12/26 01:35:10;;;;;;;17.30;15.50;;;1.40;1.00;1.80;99706.00;;;;5025940;28;20468;-79
2021/12/26 01:37:59;;;;;;;16.90;15.30;;;1.40;1.00;1.80;99699.00;;;;5072053;28;20467;-79
2021/12/26 01:40:56;;;;;;;16.70;15.07;;;1.30;1.00;1.70;99690.00;;;;5050851;28;20466;-78
2021/12/26 01:43:45;;;;;;;16.77;15.07;;;1.40;1.00;1.70;99696.00;;;;5072130;28;20502;-78
2021/12/26 01:46:31;;;;;;;18.00;16.20;;;1.30;1.00;1.60;99695.00;;;;5071492;28;20425;-78
2021/12/26 01:49:06;;;;;;;17.80;16.10;;;1.20;1.00;1.60;99687.00;;;;5071317;28;20464;-79
2021/12/26 01:51:34;;;;;;;18.53;16.30;;;1.10;1.00;1.50;99694.00;;;;5071355;28;20458;-81
2021/12/26 01:54:08;;;;;;;17.10;15.40;;;1.10;1.00;1.50;99692.00;;;;5054142;28;20448;-77
2021/12/26 01:56:39;;;;;;;17.27;15.67;;;1.00;1.00;1.50;99688.00;;;;5070613;28;20467;-77
2021/12/26 01:59:12;;;;;;;18.60;16.70;;;1.00;1.00;1.50;99695.00;;;;5053987;28;20460;-77
2021/12/26 02:01:44;;;;;;;18.10;16.33;;;1.00;1.00;1.50;99676.00;;;;5070606;28;20849;-77
2021/12/26 02:04:13;;;;;;;18.27;16.57;;;1.00;1.00;1.60;66601.00;;;;5070127;28;20483;-78
2021/12/26 02:06:42;;;;;;;17.20;15.60;;;1.10;1.00;1.50;99692.00;;;;5056268;28;20862;-79
2021/12/26 02:09:12;;;;;;;18.53;16.80;;;1.10;1.00;1.50;99710.00;;;;5070954;28;20497;-80
2021/12/26 02:11:41;;;;;;;17.47;15.93;;;1.10;1.00;1.50;99693.00;;;;5071540;28;20451;-79
2021/12/26 02:14:12;;;;;;;16.70;15.20;;;1.00;1.00;1.40;99688.00;;;;5071873;28;20436;-78
2021/12/26 02:17:01;;;;;;;18.70;16.90;;;0.90;1.00;1.40;99631.00;;;;5060797;28;20519;-78
2021/12/26 02:19:30;;;;;;;18.03;16.33;;;1.00;1.00;1.50;66579.00;;;;5059933;28;20440;-77
2021/12/26 02:22:07;;;;;;;18.37;16.50;;;1.10;1.00;1.50;99695.00;;;;5060570;28;20583;-78
2021/12/26 02:25:07;;;;;;;17.23;15.63;;;1.10;1.00;1.50;99609.00;;;;5060245;28;20475;-78
2021/12/26 02:27:32;;;;;;;18.30;16.33;;;1.10;1.00;1.50;66588.00;;;;5065688;28;20544;-77
2021/12/26 02:30:08;;;;;;;16.33;14.73;;;1.10;1.00;1.50;66593.00;;;;5063062;28;20440;-78
2021/12/26 02:32:37;;;;;;;16.87;15.30;;;1.10;1.00;1.50;99689.00;;;;5074893;28;20463;-78
2021/12/26 02:35:07;;;;;;;16.07;14.57;;;1.10;1.00;1.50;99694.00;;;;5058041;28;20440;-78
2021/12/26 02:37:36;;;;;;;17.23;15.63;;;1.10;1.00;217.30;157301.00;;;;5066375;28;20460;-78
2021/12/26 02:40:07;;;;;;;17.73;15.73;;;1.10;1.00;1.50;99679.00;;;;5071837;28;20449;-78
2021/12/26 02:42:36;;;;;;;16.17;14.67;;;1.10;1.00;1.50;99698.00;;;;5051439;28;20479;-78
2021/12/26 02:45:06;;;;;;;16.93;15.40;;;1.00;1.00;1.50;99682.00;;;;5049501;28;20477;-78
2021/12/26 02:47:37;;;;;;;15.77;14.17;;;1.00;1.00;1.50;99681.00;;;;5051150;28;20473;-77
2021/12/26 02:50:11;;;;;;;18.30;16.43;;;1.00;1.00;1.50;99660.00;;;;5057719;28;20869;-78
2021/12/26 02:52:41;;;;;;;17.20;15.40;;;1.10;1.00;1.50;99671.00;;;;5049713;28;20541;-79
2021/12/26 02:55:13;;;;;;;17.80;16.03;;;1.10;1.00;1.50;99678.00;;;;5042296;28;20441;-78
2021/12/26 02:57:41;;;;;;;17.97;16.20;;;1.10;1.00;1.50;99673.00;;;;5038288;28;20461;-78
2021/12/26 03:00:14;;;;;;;17.23;15.63;;;1.00;1.00;52.70;157327.00;;;;5068309;28;20448;-79
2021/12/26 03:02:44;;;;;;;17.97;16.27;;;1.10;1.00;1.50;99698.00;;;;5051332;28;20528;-78
2021/12/26 03:05:13;;;;;;;17.47;15.80;;;1.10;1.00;1.60;99692.00;;;;5037548;28;20465;-78
2021/12/26 03:07:43;;;;;;;18.33;16.57;;;1.10;1.00;1.60;99692.00;;;;5038979;28;20467;-78
2021/12/26 03:10:21;;;;;;;16.23;14.73;;;1.30;1.00;1.60;99695.00;;;;5042611;28;20448;-78
2021/12/26 03:12:52;;;;;;;16.47;14.97;;;1.20;1.00;1.50;99670.00;;;;5082320;28;20439;-78
2021/12/26 03:15:20;;;;;;;17.20;15.40;;;1.10;1.00;1.60;99450.00;;;;5089010;28;20456;-78
2021/12/26 03:17:49;;;;;;;16.50;14.90;;;1.10;1.00;1.60;99685.00;;;;5090576;28;20479;-77
2021/12/26 03:20:22;;;;;;;15.73;14.30;;;1.20;1.00;1.60;99668.00;;;;5075396;28;20447;-77
2021/12/26 03:22:52;;;;;;;16.37;14.77;;;1.20;1.00;1.50;99670.00;;;;5067039;28;20527;-78
2021/12/26 03:25:24;;;;;;;17.73;16.13;;;1.10;1.00;1.50;99678.00;;;;5090511;28;20535;-77
2021/12/26 03:27:53;;;;;;;17.63;16.00;;;1.10;1.00;1.60;99688.00;;;;5071310;28;20530;-79
2021/12/26 03:30:24;;;;;;;17.90;16.20;;;1.10;1.00;1.60;66609.00;;;;5070424;28;20428;-78
2021/12/26 03:32:56;;;;;;;17.07;15.47;;;1.20;1.00;1.70;99685.00;;;;5073095;28;20519;-76
2021/12/26 03:35:28;;;;;;;16.90;15.30;;;1.10;1.00;1.70;99681.00;;;;5068756;28;20462;-80
2021/12/26 03:38:00;;;;;;;18.17;16.47;;;1.20;1.00;1.70;66640.00;;;;5068370;28;20468;-77
2021/12/26 03:40:48;;;;;;;17.53;15.93;;;1.30;1.00;1.70;99691.00;;;;5053164;28;20526;-79
2021/12/26 03:43:17;;;;;;;18.20;16.47;;;1.30;1.00;1.70;99683.00;;;;5051955;28;20499;-76
2021/12/26 03:45:49;;;;;;;17.03;15.43;;;1.30;1.00;1.70;99681.00;;;;5052413;28;20471;-80
2021/12/26 03:48:19;;;;;;;17.37;15.77;;;1.30;1.00;1.60;99686.00;;;;5054295;28;20463;-80
2021/12/26 03:50:49;;;;;;;17.47;15.87;;;1.20;1.00;1.60;99691.00;;;;5070897;28;20454;-78
2021/12/26 03:53:19;;;;;;;17.87;16.17;;;1.10;1.00;1.70;99684.00;;;;5070852;28;20444;-78
2021/12/26 03:55:49;;;;;;;17.47;15.77;;;1.20;1.00;1.70;99676.00;;;;5051849;28;20533;-78
2021/12/26 03:58:19;;;;;;;18.10;16.40;;;1.30;1.00;217.30;157394.00;;;;5051571;28;20463;-77
2021/12/26 04:00:53;;;;;;;16.97;15.37;;;1.40;1.00;1.70;99681.00;;;;5051478;28;20440;-77
2021/12/26 04:03:23;;;;;;;17.37;15.77;;;1.40;1.00;1.70;99678.00;;;;5067945;28;20861;-77
2021/12/26 04:05:58;;;;;;;16.27;14.83;;;1.40;1.00;1.80;99674.00;;;;5067886;28;20555;-76
2021/12/26 04:08:30;;;;;;;17.77;16.10;;;1.40;1.00;1.80;66648.00;;;;5051064;28;20460;-75
2021/12/26 04:10:58;;;;;;;19.67;17.77;;;1.30;1.00;1.80;99674.00;;;;5051101;28;20470;-76
2021/12/26 04:13:27;;;;;;;17.47;15.87;;;1.40;1.00;1.80;99676.00;;;;5052296;28;20450;-76
2021/12/26 04:15:55;;;;;;;17.47;15.77;;;1.40;1.00;1.80;99670.00;;;;5066991;28;20444;-76
2021/12/26 04:18:24;;;;;;;17.83;16.07;;;1.40;1.00;1.80;99659.00;;;;5067483;28;20471;-76
2021/12/26 04:20:52;;;;;;;17.77;16.07;;;1.40;1.00;1.80;99674.00;;;;5067837;28;20466;-78
2021/12/26 04:23:24;;;;;;;18.73;17.00;;;1.40;1.00;1.80;99685.00;;;;5068342;28;20498;-76
2021/12/26 04:25:54;;;;;;;18.03;16.33;;;1.40;1.00;1.80;99667.00;;;;5051230;28;20483;-79
2021/12/26 04:28:22;;;;;;;18.53;16.80;;;1.40;1.00;1.80;99673.00;;;;5087959;28;20455;-83
2021/12/26 04:30:53;;;;;;;16.80;15.20;;;1.30;1.00;1.80;99665.00;;;;5094062;28;20444;-83
2021/12/26 04:33:22;;;;;;;17.83;16.13;;;1.30;1.00;1.80;99666.00;;;;5077977;28;20446;-80
2021/12/26 04:35:50;;;;;;;17.23;15.53;;;1.20;1.00;1.80;99675.00;;;;5094258;28;20436;-77
2021/12/26 04:38:19;;;;;;;17.40;15.77;;;1.30;1.00;1.80;99669.00;;;;5075900;28;21025;-76
2021/12/26 04:40:48;;;;;;;17.47;15.87;;;1.40;1.00;1.80;99672.00;;;;5067974;28;20475;-77
2021/12/26 04:43:41;;;;;;;18.70;16.93;;;1.30;1.00;1.80;99681.00;;;;5052248;28;20448;-77
2021/12/26 04:46:18;;;;;;;18.73;16.93;;;1.30;1.00;1.80;99696.00;;;;5077217;28;20474;-78
2021/12/26 04:49:00;;;;;;;24.87;21.10;;;1.30;1.00;1.80;99677.00;;;;5085330;28;20462;-78
2021/12/26 04:51:30;;;;;;;24.57;20.97;;;1.30;1.00;1.80;99674.00;;;;5079873;28;20538;-78
2021/12/26 04:54:03;;;;;;;21.73;19.53;;;1.30;1.00;1.80;99682.00;;;;5054405;28;20451;-79
2021/12/26 04:56:33;;;;;;;22.67;20.13;;;1.30;1.00;217.30;157438.00;;;;5070093;28;20960;-78
2021/12/26 04:59:04;;;;;;;18.50;16.80;;;1.40;1.00;1.70;66640.00;;;;5069861;28;20471;-78
2021/12/26 05:01:36;;;;;;;19.80;17.80;;;1.40;1.00;1.70;99707.00;;;;5070247;28;20876;-78
2021/12/26 05:04:05;;;;;;;21.97;19.57;;;1.30;1.00;1.60;99686.00;;;;5069667;28;20882;-78
2021/12/26 05:06:33;;;;;;;21.80;18.70;;;1.30;1.00;1.60;99691.00;;;;5054091;28;20467;-78
2021/12/26 05:09:03;;;;;;;19.37;17.37;;;1.20;1.00;1.60;99694.00;;;;5075468;28;20494;-78
2021/12/26 05:11:33;;;;;;;18.40;16.60;;;1.20;1.00;1.60;99697.00;;;;5066941;28;20440;-78
2021/12/26 05:14:03;;;;;;;19.37;17.40;;;1.30;1.00;1.50;99691.00;;;;5034398;28;20447;-78
2021/12/26 05:16:31;;;;;;;18.00;16.30;;;1.30;1.00;1.60;99686.00;;;;5034709;28;20476;-78
2021/12/26 05:19:01;;;;;;;18.27;16.57;;;1.30;1.00;1.50;99682.00;;;;5032859;28;20465;-78
2021/12/26 05:21:29;;;;;;;20.07;18.27;;;1.30;1.00;1.60;99697.00;;;;5035014;28;21234;-78
2021/12/26 05:23:59;;;;;;;18.70;17.00;;;1.20;1.00;1.60;99688.00;;;;5058153;28;20859;-78
2021/12/26 05:26:28;;;;;;;18.57;16.70;;;1.20;1.00;1.60;99684.00;;;;5036834;28;20472;-78
2021/12/26 05:28:56;;;;;;;19.50;17.50;;;1.20;1.00;217.30;157382.00;;;;5039274;28;20544;-78
2021/12/26 05:31:26;;;;;;;18.53;16.63;;;1.30;1.00;1.70;99679.00;;;;5038780;28;20936;-78
2021/12/26 05:33:55;;;;;;;18.60;16.90;;;1.30;1.00;52.70;157404.00;;;;5037262;28;20433;-78
2021/12/26 05:36:25;;;;;;;19.00;17.07;;;1.40;1.00;1.80;99675.00;;;;5051963;28;20535;-78
2021/12/26 05:38:55;;;;;;;18.70;17.00;;;1.30;1.00;1.80;66648.00;;;;5054208;28;20495;-78
2021/12/26 05:41:24;;;;;;;18.00;16.30;;;1.30;1.00;1.80;99673.00;;;;5055225;28;21283;-78
2021/12/26 05:44:09;;;;;;;18.90;17.00;;;1.40;1.00;1.80;99672.00;;;;5055903;28;20507;-78
2021/12/26 05:46:39;;;;;;;18.13;16.43;;;1.30;1.00;1.80;99670.00;;;;5039097;28;20468;-78
2021/12/26 05:49:09;;;;;;;20.53;18.40;;;1.40;1.00;1.70;99656.00;;;;5039141;28;20477;-78
2021/12/26 05:51:48;;;;;;;18.97;17.10;;;1.40;1.00;1.80;99669.00;;;;5066563;28;20457;-77
2021/12/26 05:54:29;;;;;;;18.23;16.43;;;1.30;1.00;1.80;99656.00;;;;5066575;28;20457;-77
2021/12/26 05:56:57;;;;;;;18.20;16.50;;;1.40;1.00;1.80;99676.00;;;;5068022;28;20512;-76
2021/12/26 05:59:25;;;;;;;20.37;18.37;;;1.40;1.00;1.80;99654.00;;;;5074556;28;20484;-78
2021/12/26 06:01:55;;;;;;;18.70;16.90;;;1.50;1.00;1.80;66656.00;;;;5039551;28;20938;-78
2021/12/26 06:04:24;;;;;;;18.93;17.13;;;1.40;1.00;1.80;66656.00;;;;5042004;28;20429;-79
2021/12/26 06:06:53;;;;;;;17.60;15.90;;;1.30;1.00;217.30;157454.00;;;;5054031;28;20469;-79
2021/12/26 06:09:24;;;;;;;17.40;15.80;;;1.40;1.00;1.80;99664.00;;;;5039130;28;20497;-79
2021/12/26 06:11:53;;;;;;;18.20;16.40;;;1.40;1.00;1.80;99665.00;;;;5054187;28;20953;-78
2021/12/26 06:14:21;;;;;;;18.80;16.90;;;1.40;1.00;1.80;99665.00;;;;5063987;28;20441;-77
2021/12/26 06:16:50;;;;;;;18.57;16.83;;;1.30;1.00;1.80;99663.00;;;;5057971;28;20456;-80
2021/12/26 06:19:40;;;;;;;17.83;16.13;;;1.30;1.00;1.80;99677.00;;;;5052779;28;20444;-78
2021/12/26 06:22:23;;;;;;;20.47;18.27;;;1.20;1.00;1.80;99671.00;;;;5051378;28;20443;-78
2021/12/26 06:25:11;;;;;;;19.23;17.27;;;1.20;1.00;1.80;99679.00;;;;5051226;28;20452;-78
2021/12/26 06:27:54;;;;;;;18.37;16.63;;;1.20;1.00;1.80;99669.00;;;;5053001;28;20540;-78
2021/12/26 06:30:31;;;;;;;17.97;16.20;;;1.30;1.00;1.70;99674.00;;;;5054992;28;20417;-78
2021/12/26 06:33:29;;;;;;;17.83;16.03;;;1.20;1.00;1.70;99680.00;;;;5033749;28;20840;-77
2021/12/26 06:36:18;;;;;;;18.60;16.70;;;1.20;1.00;1.80;99683.00;;;;5043028;28;20479;-79
2021/12/26 06:39:05;;;;;;;18.40;16.70;;;1.30;1.00;1.80;99687.00;;;;5035222;28;20457;-78
2021/12/26 06:41:52;;;;;;;19.60;17.80;;;1.20;1.00;1.80;99690.00;;;;5049560;28;20422;-78
2021/12/26 06:44:39;;;;;;;18.10;16.40;;;1.30;1.00;1.80;99683.00;;;;5048939;28;20508;-78
2021/12/26 06:47:18;;;;;;;17.93;16.23;;;1.30;1.00;1.80;99675.00;;;;5040101;28;20488;-77
2021/12/26 06:49:52;;;;;;;17.87;16.07;;;1.30;1.00;1.70;99687.00;;;;5040284;28;20429;-77
2021/12/26 06:52:21;;;;;;;19.30;17.30;;;1.20;1.00;217.30;157388.00;;;;5047371;28;20517;-77
2021/12/26 06:54:50;;;;;;;19.03;17.13;;;1.20;1.00;1.60;66606.00;;;;5038775;28;20445;-78
2021/12/26 06:57:19;;;;;;;18.10;16.30;;;1.30;1.00;1.60;99672.00;;;;5041030;28;20536;-77
2021/12/26 06:59:47;;;;;;;19.30;17.33;;;1.30;1.00;1.60;66615.00;;;;5038923;28;20433;-78
2021/12/26 07:02:16;;;;;;;17.60;15.90;;;1.30;1.00;1.60;99604.00;;;;5035656;28;20437;-77
2021/12/26 07:04:57;;;;;;;19.20;17.30;;;1.20;1.00;1.60;99687.00;;;;5056203;28;20440;-77
2021/12/26 07:07:34;;;;;;;17.63;16.00;;;1.20;1.00;1.70;99671.00;;;;5053472;28;20538;-77
2021/12/26 07:10:03;;;;;;;17.57;15.87;;;1.10;1.00;1.70;99675.00;;;;5063446;28;20476;-77
2021/12/26 07:12:31;;;;;;;18.80;17.00;;;1.20;1.00;1.70;99678.00;;;;5081510;28;20467;-77
2021/12/26 07:15:39;;;;;;;18.80;16.87;;;1.20;1.00;1.80;99683.00;;;;5052409;28;20452;-79
2021/12/26 07:18:08;;;;;;;18.20;16.37;;;1.20;1.00;1.80;99675.00;;;;5073271;28;20470;-76
2021/12/26 07:20:40;;;;;;;17.70;16.00;;;1.30;1.00;1.70;99677.00;;;;5094069;28;20444;-78
2021/12/26 07:23:36;;;;;;;18.83;16.93;;;1.30;1.00;1.70;99675.00;;;;5087906;28;20490;-78
2021/12/26 07:26:11;;;;;;;20.00;18.00;;;1.30;1.00;1.70;99685.00;;;;5069794;28;20447;-77
2021/12/26 07:28:39;;;;;;;18.47;16.67;;;1.30;1.00;1.60;99671.00;;;;5053846;28;20470;-78
2021/12/26 07:31:24;;;;;;;18.03;16.23;;;1.20;1.00;1.60;99669.00;;;;5054205;28;20463;-77
2021/12/26 07:33:58;;;;;;;17.97;16.17;;;1.10;1.00;1.70;99670.00;;;;5069639;28;20478;-78
2021/12/26 07:36:29;;;;;;;17.70;15.93;;;1.10;1.00;1.70;99671.00;;;;5069520;28;20972;-78
2021/12/26 07:39:17;;;;;;;17.37;15.77;;;1.20;1.00;1.60;99683.00;;;;5050670;28;20440;-78
2021/12/26 07:41:45;;;;;;;17.83;16.03;;;1.20;1.00;1.60;99691.00;;;;5049140;28;20980;-77
2021/12/26 07:44:32;;;;;;;17.27;15.50;;;1.10;1.00;1.60;99685.00;;;;5036009;28;20523;-78
2021/12/26 07:47:19;;;;;;;17.97;16.27;;;1.20;1.00;1.70;99696.00;;;;5034397;28;20529;-79
2021/12/26 07:49:47;;;;;;;18.13;16.40;;;1.20;1.00;1.70;99698.00;;;;5049626;28;20512;-77
2021/12/26 07:52:39;;;;;;;18.30;16.60;;;1.40;1.00;1.70;99701.00;;;;5034105;28;20796;-76
2021/12/26 07:55:28;;;;;;;17.93;16.23;;;1.20;1.00;1.70;66632.00;;;;5032759;28;20421;-77
2021/12/26 07:58:16;;;;;;;18.70;16.80;;;1.20;1.00;1.80;99708.00;;;;5033257;28;20507;-77
2021/12/26 08:01:24;;;;;;;19.43;17.40;;;1.20;1.00;1.70;99701.00;;;;4991076;28;20963;-77
2021/12/26 08:04:09;;;;;;;18.43;16.63;;;1.30;1.00;1.70;99695.00;;;;4990380;28;20455;-77
2021/12/26 08:06:58;;;;;;;19.20;17.20;;;1.30;1.00;1.80;99702.00;;;;5022211;28;20559;-76
2021/12/26 08:09:29;;;;;;;18.57;16.60;;;1.40;1.00;1.80;99699.00;;;;5031710;28;20980;-77
2021/12/26 08:11:58;;;;;;;18.80;17.00;;;1.50;1.00;1.80;99707.00;;;;5031947;28;20453;-77
2021/12/26 08:14:27;;;;;;;18.67;16.77;;;1.40;1.00;1.90;99711.00;;;;5031717;28;20445;-80
2021/12/26 08:16:55;;;;;;;18.90;17.07;;;1.40;1.00;1.90;99717.00;;;;5034003;28;20437;-79
2021/12/26 08:19:23;;;;;;;18.20;16.40;;;1.50;1.00;1.90;99721.00;;;;5034445;28;20520;-78
2021/12/26 08:21:52;;;;;;;17.17;15.50;;;1.50;1.00;1.90;66672.00;;;;5037805;28;20440;-78
2021/12/26 08:24:22;;;;;;;18.83;16.97;;;1.50;1.00;1.90;99723.00;;;;5043098;28;20436;-80
2021/12/26 08:26:51;;;;;;;17.10;15.50;;;1.50;1.00;1.90;99711.00;;;;5037720;28;22408;-78
2021/12/26 08:29:23;;;;;;;18.73;16.83;;;1.50;1.00;1.90;99709.00;;;;5043514;28;20437;-77
2021/12/26 08:31:56;;;;;;;17.93;16.20;;;1.60;1.00;2.00;99709.00;;;;5036531;28;20453;-76
2021/12/26 08:34:25;;;;;;;18.37;16.47;;;1.70;1.00;2.00;99716.00;;;;5032016;28;20437;-76
2021/12/26 08:37:01;;;;;;;16.93;15.27;;;1.60;1.00;1.90;99705.00;;;;5032179;28;20456;-79
2021/12/26 08:39:32;;;;;;;18.00;16.13;;;1.70;1.00;1.90;99707.00;;;;5032029;28;20436;-76
2021/12/26 08:42:01;;;;;;;18.93;16.57;;;1.70;1.00;2.10;66697.00;;;;5032126;28;20421;-76
2021/12/26 08:44:34;;;;;;;16.97;15.37;;;1.70;1.00;2.00;99711.00;;;;5032848;28;20848;-76
2021/12/26 08:47:04;;;;;;;17.87;16.00;;;1.60;1.00;2.10;99705.00;;;;5033005;28;20471;-79
2021/12/26 08:49:33;;;;;;;16.30;14.60;;;1.70;1.00;2.20;66729.00;;;;5032824;28;20898;-77
2021/12/26 08:52:02;;;;;;;17.67;15.80;;;1.80;1.00;2.20;99696.00;;;;5047749;28;20456;-77
2021/12/26 08:54:33;;;;;;;19.03;17.17;;;1.70;1.00;2.20;99713.00;;;;5031814;28;20448;-77
2021/12/26 08:57:07;;;;;;;17.87;16.17;;;1.70;1.00;217.30;157650.00;;;;5031255;28;20498;-76
2021/12/26 08:59:38;;;;;;;18.03;16.23;;;1.80;1.00;2.30;99710.00;;;;5034379;28;20421;-76
2021/12/26 09:02:07;;;;;;;18.50;16.60;;;1.90;1.00;217.30;157660.00;;;;5049299;28;20529;-76
2021/12/26 09:04:36;;;;;;;19.20;17.40;;;2.00;1.00;2.40;99709.00;;;;5036793;28;20437;-78
2021/12/26 09:07:06;;;;;;;18.03;16.33;;;2.00;1.00;2.40;99722.00;;;;5052960;28;20508;-75
2021/12/26 09:09:34;;;;;;;18.17;16.27;;;2.00;1.00;2.50;66803.00;;;;5036964;28;20443;-79
2021/12/26 09:12:03;;;;;;;16.40;14.70;;;2.00;1.00;2.50;99719.00;;;;5035829;28;20441;-78
2021/12/26 09:14:32;;;;;;;17.00;15.30;;;2.10;1.00;217.30;157725.00;;;;5035500;28;20445;-79
2021/12/26 09:17:03;;;;;;;16.03;14.20;;;2.00;1.00;2.50;99725.00;;;;5036038;28;20452;-77
2021/12/26 09:19:33;;;;;;;16.40;14.70;;;2.10;1.00;2.60;99736.00;;;;5036015;28;20645;-76
2021/12/26 09:22:07;;;;;;;16.17;14.60;;;2.10;1.00;2.70;66837.00;;;;5035763;28;20425;-77
2021/12/26 09:24:38;;;;;;;17.10;15.40;;;2.10;1.00;2.70;99731.00;;;;5036827;28;20425;-77
2021/12/26 09:27:06;;;;;;;16.50;14.90;;;2.10;1.00;2.70;99716.00;;;;5051112;28;20437;-76
2021/12/26 09:29:35;;;;;;;16.97;15.27;;;2.30;1.00;2.70;99724.00;;;;5052212;28;20463;-77
2021/12/26 09:32:06;;;;;;;16.90;15.20;;;2.10;1.00;2.70;99747.00;;;;5051028;28;20455;-77
2021/12/26 09:34:36;;;;;;;17.53;15.73;;;2.30;1.00;52.70;157834.00;;;;5035290;28;20433;-77
2021/12/26 09:37:09;;;;;;;17.53;15.83;;;2.40;1.00;2.80;99729.00;;;;5036211;28;20512;-79
2021/12/26 09:39:39;;;;;;;17.63;15.83;;;2.40;1.00;52.70;157866.00;;;;5037193;28;20509;-77
2021/12/26 09:42:09;;;;;;;18.23;16.40;;;2.30;1.00;2.80;99729.00;;;;5035825;28;20906;-77
2021/12/26 09:44:38;;;;;;;17.83;16.00;;;2.30;1.00;2.90;99723.00;;;;5033532;28;20464;-76
2021/12/26 09:47:09;;;;;;;16.17;14.47;;;2.40;1.00;3.00;99720.00;;;;5039700;28;20440;-77
2021/12/26 09:49:37;;;;;;;17.03;15.23;;;2.50;1.00;217.30;157945.00;;;;5037310;28;20460;-79
2021/12/26 09:52:07;;;;;;;17.83;14.00;;;2.40;1.00;3.00;99729.00;;;;5035368;28;20956;-78
2021/12/26 09:54:36;;;;;;;17.67;15.97;;;2.40;1.00;2.90;99713.00;;;;5034638;28;20451;-77
2021/12/26 09:57:06;;;;;;;16.90;15.20;;;2.30;1.00;2.90;99717.00;;;;5035068;28;20436;-77
2021/12/26 09:59:34;;;;;;;15.70;14.20;;;2.30;1.00;3.00;99706.00;;;;5034775;28;20440;-77
2021/12/26 10:02:11;;;;;;;15.87;14.20;;;2.40;1.00;3.00;99719.00;;;;5035538;28;20441;-77
2021/12/26 10:04:50;;;;;;;20.63;17.50;;;2.50;1.00;3.00;99702.00;;;;5035130;28;20429;-78
2021/12/26 10:07:25;;;;;;;16.83;15.13;;;2.50;1.00;3.10;99703.00;;;;5035340;28;20555;-77
2021/12/26 10:09:55;;;;;;;15.53;13.83;;;2.50;1.00;3.10;99699.00;;;;5034648;28;20516;-77
2021/12/26 10:12:24;;;;;;;15.20;13.20;;;2.50;1.00;3.10;99695.00;;;;5034860;28;20829;-77
2021/12/26 10:14:54;;;;;;;15.97;14.40;;;2.60;1.00;3.10;99693.00;;;;5033429;28;20824;-77
2021/12/26 10:17:27;;;;;;;16.10;14.40;;;2.50;1.00;3.20;99687.00;;;;5034583;28;20472;-77
2021/12/26 10:20:05;;;;;;;14.70;13.20;;;2.60;1.00;3.20;99694.00;;;;5035204;28;20421;-77
2021/12/26 10:22:34;;;;;;;15.83;14.33;;;2.70;1.00;3.30;99672.00;;;;5035393;28;20425;-78
2021/12/26 10:25:10;;;;;;;16.03;14.43;;;2.70;1.00;3.30;99680.00;;;;5037604;28;20810;-80
2021/12/26 10:27:41;;;;;;;14.80;13.30;;;2.80;1.00;3.30;99688.00;;;;5054352;28;20479;-79
2021/12/26 10:30:15;;;;;;;16.10;14.50;;;2.70;1.00;3.30;99679.00;;;;5045820;28;20433;-78
2021/12/26 10:32:47;;;;;;;15.70;14.10;;;2.80;1.00;3.40;99683.00;;;;5035576;28;20475;-80
2021/12/26 10:35:18;;;;;;;15.60;14.10;;;2.90;1.00;3.30;99673.00;;;;5034224;28;20483;-78
2021/12/26 10:37:51;;;;;;;15.60;14.00;;;2.70;1.00;3.40;99682.00;;;;5034339;28;20465;-79
2021/12/26 10:40:23;;;;;;;17.93;16.00;;;2.80;1.00;3.40;99674.00;;;;5037496;28;20441;-78
2021/12/26 10:42:54;;;;;;;16.77;15.00;;;2.90;1.00;3.40;99671.00;;;;5072941;28;20437;-83
2021/12/26 10:45:25;;;;;;;17.40;14.37;;;2.90;1.00;3.30;99664.00;;;;5058362;28;20447;-81
2021/12/26 10:47:59;;;;;;;16.43;14.73;;;2.90;1.00;3.30;99670.00;;;;5059017;28;20460;-78
2021/12/26 10:50:31;;;;;;;17.60;15.70;;;2.90;1.00;3.30;99683.00;;;;5060052;28;20425;-79
2021/12/26 10:53:02;;;;;;;16.23;14.63;;;3.00;1.00;3.30;99671.00;;;;5059324;28;20437;-83
2021/12/26 10:55:34;;;;;;;16.20;14.50;;;3.00;1.00;217.30;158092.00;;;;5059492;28;20492;-79
2021/12/26 10:58:06;;;;;;;15.30;13.57;;;2.80;1.00;3.40;99665.00;;;;5059269;28;20468;-77
2021/12/26 11:00:37;;;;;;;17.73;15.83;;;2.80;1.00;3.50;99654.00;;;;5051026;28;20440;-79
2021/12/26 11:03:09;;;;;;;16.23;14.53;;;2.90;1.00;3.60;67071.00;;;;5042350;28;20444;-79
2021/12/26 11:05:43;;;;;;;16.17;14.57;;;3.10;1.00;3.80;67094.00;;;;5042039;28;20453;-79
2021/12/26 11:08:15;;;;;;;19.60;17.00;;;3.40;1.00;3.80;67102.00;;;;5050582;28;20464;-78
2021/12/26 11:10:46;;;;;;;22.30;20.10;;;3.30;1.00;217.30;158298.00;;;;5069875;28;20453;-79
2021/12/26 11:13:19;;;;;;;20.07;18.07;;;3.20;1.00;3.70;99665.00;;;;5070739;28;20442;-79
2021/12/26 11:15:49;;;;;;;18.00;16.20;;;3.20;1.00;3.60;67045.00;;;;5073597;28;20440;-79
2021/12/26 11:18:20;;;;;;;15.73;14.20;;;3.20;1.00;3.50;67027.00;;;;5073862;28;20468;-79
2021/12/26 11:20:51;;;;;;;17.77;15.93;;;3.00;1.00;3.50;99640.00;;;;5064869;28;20424;-78
2021/12/26 11:23:23;;;;;;;18.10;16.30;;;2.90;1.00;3.40;67008.00;;;;5059265;28;20870;-79
2021/12/26 11:25:54;;;;;;;18.27;16.43;;;2.90;1.00;3.40;67001.00;;;;5055612;28;20463;-79